createdAt,value
2017-05-25T00:00:02.972Z,12.5
2017-05-25T00:05:02.817Z,12.3
2017-05-25T00:10:02.495Z,12.3
2017-05-25T00:15:03.204Z,12.3
2017-05-25T00:20:03.014Z,12.3
2017-05-25T00:25:02.702Z,12.3
2017-05-25T00:30:03.341Z,12.1
2017-05-25T00:35:03.015Z,12.1
2017-05-25T00:40:02.626Z,12.1
2017-05-25T00:45:03.259Z,12.0
2017-05-25T00:50:02.856Z,12.0
2017-05-25T00:55:02.544Z,12.0
2017-05-25T01:00:03.235Z,11.8
2017-05-25T01:05:03.008Z,11.8
2017-05-25T01:10:02.740Z,11.8
2017-05-25T01:15:03.305Z,11.6
2017-05-25T01:20:03.037Z,11.6
2017-05-25T01:25:02.731Z,11.6
2017-05-25T01:30:02.405Z,11.6
2017-05-25T01:35:02.976Z,11.6
2017-05-25T01:40:02.793Z,11.6
2017-05-25T01:45:02.542Z,11.6
2017-05-25T01:50:03.221Z,11.6
2017-05-25T01:55:02.972Z,11.3
2017-05-25T02:00:02.650Z,11.3
2017-05-25T02:05:02.419Z,11.3
2017-05-25T02:10:03.312Z,11.6
2017-05-25T02:15:02.860Z,11.6
2017-05-25T02:20:02.601Z,11.8
2017-05-25T02:25:03.350Z,11.8
2017-05-25T02:30:03.038Z,12.0
2017-05-25T02:35:02.753Z,12.0
2017-05-25T02:40:02.527Z,12.1
2017-05-25T02:45:03.054Z,11.6
2017-05-25T02:50:02.600Z,11.6
2017-05-25T02:55:02.415Z,11.8
2017-05-25T03:00:03.235Z,11.8
2017-05-25T03:05:02.901Z,12.0
2017-05-25T03:10:02.608Z,11.8
2017-05-25T03:15:03.197Z,11.6
2017-05-25T03:20:02.946Z,11.8
2017-05-25T03:25:02.640Z,11.6
2017-05-25T03:30:03.370Z,11.8
2017-05-25T03:35:03.141Z,11.8
2017-05-25T03:40:02.955Z,11.8
2017-05-25T03:45:02.720Z,12.0
2017-05-25T03:50:02.480Z,11.8
2017-05-25T03:55:03.221Z,12.0
2017-05-25T04:00:03.023Z,12.0
2017-05-25T04:05:02.787Z,12.0
2017-05-25T04:10:02.654Z,12.0
2017-05-25T04:15:02.433Z,12.0
2017-05-25T04:20:03.017Z,11.8
2017-05-25T04:25:02.647Z,11.8
2017-05-25T04:30:02.870Z,11.8
2017-05-25T04:35:02.471Z,11.6
2017-05-25T04:40:03.242Z,11.6
2017-05-25T04:45:02.814Z,12.0
2017-05-25T04:50:02.455Z,12.1
2017-05-25T04:55:03.208Z,12.1
2017-05-25T05:00:02.824Z,12.1
2017-05-25T05:05:03.369Z,12.0
2017-05-25T05:10:03.020Z,12.1
2017-05-25T05:15:02.775Z,12.1
2017-05-25T05:20:02.585Z,12.1
2017-05-25T05:25:03.267Z,12.1
2017-05-25T05:30:02.848Z,12.1
2017-05-25T05:35:02.562Z,12.3
2017-05-25T05:40:03.215Z,12.3
2017-05-25T05:45:02.875Z,12.3
2017-05-25T05:50:02.457Z,12.8
2017-05-25T05:55:03.072Z,12.8
2017-05-25T06:00:02.698Z,13.3
2017-05-25T06:05:02.517Z,13.3
2017-05-25T06:10:03.265Z,13.6
2017-05-25T06:15:02.974Z,13.6
2017-05-25T06:20:02.803Z,13.6
2017-05-25T06:25:02.513Z,13.8
2017-05-25T06:30:03.292Z,13.3
2017-05-25T06:35:02.939Z,13.6
2017-05-25T06:40:02.631Z,13.6
2017-05-25T06:45:03.430Z,13.6
2017-05-25T06:50:03.026Z,13.8
2017-05-25T06:55:02.741Z,14.0
2017-05-25T07:00:02.559Z,14.3
2017-05-25T07:05:03.209Z,14.0
2017-05-25T07:10:03.104Z,14.0
2017-05-25T07:15:02.767Z,14.3
2017-05-25T07:20:02.428Z,14.5
2017-05-25T07:25:03.000Z,14.6
2017-05-25T07:30:02.752Z,14.8
2017-05-25T07:35:02.511Z,15.1
2017-05-25T07:40:03.277Z,15.5
2017-05-25T07:45:02.892Z,15.8
2017-05-25T07:50:02.447Z,16.2
2017-05-25T07:55:03.051Z,16.7
2017-05-25T08:00:02.705Z,16.7
2017-05-25T08:05:03.365Z,17.1
2017-05-25T08:10:03.037Z,18.2
2017-05-25T08:15:02.694Z,18.2
2017-05-25T08:20:03.372Z,19.0
2017-05-25T08:25:02.952Z,19.0
2017-05-25T08:30:02.578Z,19.1
2017-05-25T08:35:03.231Z,19.7
2017-05-25T08:40:02.970Z,20.1
2017-05-25T08:45:02.770Z,20.7
2017-05-25T08:50:02.504Z,20.7
2017-05-25T08:55:03.135Z,20.0
2017-05-25T09:00:02.848Z,21.3
2017-05-25T09:05:02.527Z,20.2
2017-05-25T09:10:03.263Z,21.2
2017-05-25T09:15:02.917Z,21.6
2017-05-25T09:20:02.679Z,21.3
2017-05-25T09:25:03.388Z,21.0
2017-05-25T09:30:02.974Z,22.2
2017-05-25T09:35:02.587Z,22.2
2017-05-25T09:40:03.345Z,22.0
2017-05-25T09:45:02.963Z,23.2
2017-05-25T09:50:02.582Z,23.1
2017-05-25T09:55:03.355Z,22.2
2017-05-25T10:00:02.953Z,22.0
2017-05-25T10:05:02.599Z,23.3
2017-05-25T10:10:02.436Z,22.7
2017-05-25T10:15:03.070Z,23.7
2017-05-25T10:20:02.788Z,23.6
2017-05-25T10:25:02.477Z,23.3
2017-05-25T10:30:03.145Z,22.6
2017-05-25T10:35:02.931Z,23.7
2017-05-25T10:40:02.582Z,23.8
2017-05-25T10:45:03.426Z,24.2
2017-05-25T10:50:03.198Z,23.6
2017-05-25T10:55:02.876Z,23.2
2017-05-25T11:00:02.652Z,24.2
2017-05-25T11:05:03.307Z,24.3
2017-05-25T11:10:02.929Z,24.0
2017-05-25T11:15:02.658Z,24.2
2017-05-25T11:20:03.375Z,24.2
2017-05-25T11:25:03.028Z,24.0
2017-05-25T11:30:02.941Z,23.8
2017-05-25T11:35:02.599Z,24.8
2017-05-25T11:40:03.200Z,24.3
2017-05-25T11:45:02.962Z,25.0
2017-05-25T11:50:02.710Z,24.5
2017-05-25T11:55:03.338Z,25.3
2017-05-25T12:00:03.297Z,25.3
2017-05-25T12:05:03.146Z,26.2
2017-05-25T12:10:02.940Z,25.1
2017-05-25T12:15:02.844Z,25.5
2017-05-25T12:20:02.612Z,25.5
2017-05-25T12:25:02.568Z,25.0
2017-05-25T12:30:03.367Z,25.6
2017-05-25T12:35:03.328Z,26.5
2017-05-25T12:40:02.413Z,26.1
2017-05-25T12:45:03.349Z,25.3
2017-05-25T12:50:02.838Z,25.5
2017-05-25T12:55:03.349Z,26.2
2017-05-25T13:00:02.922Z,25.6
2017-05-25T13:05:02.974Z,25.7
2017-05-25T13:10:02.792Z,26.5
2017-05-25T13:15:03.287Z,26.8
2017-05-25T13:20:02.885Z,26.7
2017-05-25T13:25:03.221Z,25.3
2017-05-25T13:30:02.826Z,26.2
2017-05-25T13:35:02.998Z,26.6
2017-05-25T13:40:03.254Z,26.6
2017-05-25T13:45:02.424Z,26.7
2017-05-25T13:50:02.597Z,26.2
2017-05-25T13:55:02.501Z,27.2
2017-05-25T14:00:02.485Z,27.2
2017-05-25T14:05:03.266Z,27.2
2017-05-25T14:10:03.189Z,27.8
2017-05-25T14:15:03.081Z,29.1
2017-05-25T14:20:03.099Z,29.6
2017-05-25T14:25:02.918Z,27.7
2017-05-25T14:30:02.979Z,27.8
2017-05-25T14:35:02.819Z,27.2
2017-05-25T14:40:02.754Z,27.5
2017-05-25T14:45:02.436Z,28.0
2017-05-25T14:50:03.071Z,28.3
2017-05-25T14:55:02.782Z,26.8
2017-05-25T15:00:02.621Z,27.8
2017-05-25T15:05:02.430Z,27.7
2017-05-25T15:10:03.328Z,27.8
2017-05-25T15:15:02.969Z,27.8
2017-05-25T15:20:02.556Z,27.1
2017-05-25T15:25:03.327Z,25.5
2017-05-25T15:30:03.065Z,27.3
2017-05-25T15:35:02.916Z,26.0
2017-05-25T15:40:02.858Z,27.5
2017-05-25T15:45:02.580Z,27.3
2017-05-25T15:50:03.317Z,27.1
2017-05-25T15:55:03.143Z,28.1
2017-05-25T16:00:02.865Z,28.0
2017-05-25T16:05:02.677Z,29.2
2017-05-25T16:10:02.581Z,29.2
2017-05-25T16:15:03.135Z,27.2
2017-05-25T16:20:02.706Z,25.6
2017-05-25T16:25:02.481Z,24.8
2017-05-25T16:30:03.163Z,23.8
2017-05-25T16:35:02.900Z,23.7
2017-05-25T16:40:02.618Z,24.6
2017-05-25T16:45:02.458Z,24.3
2017-05-25T16:50:03.188Z,23.6
2017-05-25T16:55:03.140Z,24.2
2017-05-25T17:00:03.109Z,26.5
2017-05-25T17:05:02.744Z,26.5
2017-05-25T17:10:02.521Z,26.5
2017-05-25T17:15:03.095Z,26.7
2017-05-25T17:20:02.831Z,26.7
2017-05-25T17:25:02.622Z,26.7
2017-05-25T17:30:03.269Z,26.7
2017-05-25T17:35:02.839Z,26.2
2017-05-25T17:40:02.705Z,26.0
2017-05-25T17:45:03.327Z,26.7
2017-05-25T17:50:02.995Z,26.0
2017-05-25T17:55:02.574Z,26.1
2017-05-25T18:00:03.182Z,26.0
2017-05-25T18:05:02.995Z,25.6
2017-05-25T18:10:02.821Z,25.2
2017-05-25T18:15:02.687Z,24.8
2017-05-25T18:20:02.449Z,24.7
2017-05-25T18:25:03.165Z,24.7
2017-05-25T18:30:02.887Z,24.7
2017-05-25T18:35:02.461Z,24.3
2017-05-25T18:40:03.296Z,24.2
2017-05-25T18:45:03.077Z,24.2
2017-05-25T18:50:02.705Z,23.0
2017-05-25T18:55:02.442Z,22.2
2017-05-25T19:00:03.006Z,22.0
2017-05-25T19:05:02.732Z,21.8
2017-05-25T19:10:02.580Z,21.6
2017-05-25T19:15:02.443Z,21.3
2017-05-25T19:20:03.121Z,21.2
2017-05-25T19:25:02.932Z,20.8
2017-05-25T19:30:02.664Z,20.7
2017-05-25T19:35:03.375Z,20.3
2017-05-25T19:40:03.139Z,20.2
2017-05-25T19:45:02.726Z,20.2
2017-05-25T19:50:02.405Z,20.2
2017-05-25T19:55:03.135Z,20.1
2017-05-25T20:00:02.810Z,20.0
2017-05-25T20:05:02.463Z,19.7
2017-05-25T20:10:03.059Z,19.5
2017-05-25T20:15:02.965Z,19.5
2017-05-25T20:20:02.759Z,19.2
2017-05-25T20:25:02.412Z,19.1
2017-05-25T20:30:03.223Z,19.0
2017-05-25T20:35:02.871Z,18.8
2017-05-25T20:40:02.545Z,18.7
2017-05-25T20:45:03.223Z,18.7
2017-05-25T20:50:02.911Z,18.6
2017-05-25T20:55:02.661Z,18.6
2017-05-25T21:00:03.278Z,18.5
2017-05-25T21:05:02.920Z,18.2
2017-05-25T21:10:02.793Z,18.2
2017-05-25T21:15:02.550Z,18.1
2017-05-25T21:20:03.365Z,17.8
2017-05-25T21:25:03.143Z,17.8
2017-05-25T21:30:03.102Z,17.8
2017-05-25T21:35:02.946Z,17.7
2017-05-25T21:40:02.659Z,17.7
2017-05-25T21:45:03.293Z,17.5
2017-05-25T21:50:02.894Z,17.5
2017-05-25T21:55:02.489Z,17.5
2017-05-25T22:00:03.091Z,17.3
2017-05-25T22:05:02.822Z,17.1
2017-05-25T22:10:02.521Z,17.0
2017-05-25T22:15:03.273Z,17.0
2017-05-25T22:20:10.041Z,16.7
2017-05-25T22:25:02.759Z,16.7
2017-05-25T22:30:02.585Z,16.7
2017-05-25T22:35:03.227Z,16.7
2017-05-25T22:40:03.040Z,16.7
2017-05-25T22:45:02.827Z,16.7
2017-05-25T22:50:02.500Z,16.6
2017-05-25T22:55:03.085Z,16.3
2017-05-25T23:00:02.716Z,16.3
2017-05-25T23:05:02.838Z,16.2
2017-05-25T23:10:02.682Z,16.2
2017-05-25T23:15:02.430Z,16.0
2017-05-25T23:20:03.094Z,16.0
2017-05-25T23:25:02.932Z,16.0
2017-05-25T23:30:02.620Z,16.0
2017-05-25T23:35:03.292Z,15.8
2017-05-25T23:40:03.066Z,15.8
2017-05-25T23:45:02.818Z,15.8
2017-05-25T23:50:02.553Z,15.6
2017-05-25T23:55:03.298Z,15.6
